Terminal Aerodrome Forecast
Issued by NWS

Home | Current Version | Previous Version | Text Only | Print | Product List | Glossary On
Versions: 1 2 3 4 5 6 7 8 9 10 11 12 13 14 15 16 17 18 19 20 21 22 23 24 25 26 27 28 29 30 31 32 33 34 35 36 37 38 39 40 41 42 43 44 45 46 47 48 49 50
294
FTUS46 KEKA 192321
TAFACV
TAF
KACV 192321Z 2000/2024 20008KT 2SM RA BR BKN025 OVC030
     FM200600 18009KT 6SM -SHRA BR VCTS OVC035CB
     FM201600 24006KT P6SM VCSH SCT035 BKN050=

USA.gov is the U.S. government's official web portal to all federal, state and local government web resources and services.